Terminal Aerodrome Forecast
Issued by NWS

Home | Current Version | Previous Version | Text Only | Print | Product List | Glossary Off
Versions: 1 2 3 4 5 6 7 8 9 10 11 12 13 14 15 16 17 18

126
FTUS43 KMPX 220530
TAFRWF
TAF
KRWF 220530Z 2206/2306 03008KT P6SM VCSH BKN010 OVC040
      TEMPO 2206/2209 4SM SHRA OVC007
     FM220900 03005KT 5SM BR VCSH OVC005
     FM221600 04008KT 6SM BR OVC009
     FM222100 06004KT P6SM VCSH OVC015=

USA.gov is the U.S. government's official web portal to all federal, state and local government web resources and services.